Stamford Pioneer — VRJD7 — position and weather

sailwx.info

Track history (hours):
 
Tides and Currents Weather Stations Pressure Air Temp Water Temp Dewpoint Dewpoint Depression Visibility Wind Speed Wind Dir Waves Ship Positions

Stamford Pioneer

Last reported at 2016-Sep-16 17:30 UTC. Time now 2016-Sep-26 00:18 UTC.
Position N 27°41' W 082°35'.
Warning: this ship's position is 9 days out of date.

Length 180 m; draft 8.8 m.

Type: Cargo ship. MMSI: 477462800.

Date/timePositionNaut miles runAvg speedWind from/ knotsBaromVisibWave heightAir tempDewpointWater temp
2016-Sep-16 17:30N 27°41' W 082°35'17 8.7
2016-Sep-16 15:34N 27°56' W 082°26'0 0.0
2016-Sep-16 12:33N 27°56' W 082°26'0 0.0
2016-Sep-16 09:33N 27°56' W 082°26'0 0.0
2016-Sep-16 07:33N 27°56' W 082°26'1 0.2
2016-Sep-16 03:29N 27°55' W 082°25'0 0.0
2016-Sep-16 02:32N 27°55' W 082°25'0 0.0
2016-Sep-16 00:30N 27°55' W 082°25'0 0.0
2016-Sep-15 22:33N 27°55' W 082°25'0 0.0
2016-Sep-15 21:33N 27°55' W 082°25'0 0.0
2016-Sep-15 20:33N 27°55' W 082°25'4 2.0
2016-Sep-15 18:33N 27°51' W 082°24'0 0.0
2016-Sep-15 12:31N 27°51' W 082°24'0 0.0
2016-Sep-15 11:27N 27°51' W 082°24'0 0.0
2016-Sep-15 04:33N 27°51' W 082°24'0 0.0
2016-Sep-15 03:31N 27°51' W 082°24'0 0.0
2016-Sep-15 01:30N 27°51' W 082°24'0 0.0
2016-Sep-14 22:33N 27°51' W 082°24'0 0.0
2016-Sep-14 21:31N 27°51' W 082°24'0 0.0
2016-Sep-14 17:31N 27°51' W 082°24'0 0.0
2016-Sep-14 16:33N 27°51' W 082°24'0 0.0
2016-Sep-14 13:33N 27°51' W 082°24'0 0.0
2016-Sep-14 12:31N 27°51' W 082°24'0 0.0
2016-Sep-14 10:31N 27°51' W 082°24'0 0.0
2016-Sep-14 09:33N 27°51' W 082°24'0 0.0
2016-Sep-14 08:30N 27°51' W 082°24'0 0.0
2016-Sep-14 07:33N 27°51' W 082°24'0 0.0
2016-Sep-14 06:33N 27°51' W 082°24'0 0.0
2016-Sep-14 03:33N 27°51' W 082°24'5 1.0
2016-Sep-13 22:33N 27°48' W 082°28'9 0.2
2016-Sep-11 22:33N 27°41' W 082°35'1212.0
2016-Sep-11 21:33N 27°51' W 082°27'4 3.9
2016-Sep-11 20:32N 27°54' W 082°25'0 0.0
2016-Sep-11 19:31N 27°54' W 082°25'0 0.0
2016-Sep-11 18:33N 27°54' W 082°25'0 0.0
2016-Sep-11 17:32N 27°54' W 082°25'0 0.0
2016-Sep-11 16:32N 27°54' W 082°25'0 0.0
2016-Sep-11 15:31N 27°54' W 082°25'0 0.0
2016-Sep-11 14:32N 27°54' W 082°25'0 0.0
2016-Sep-11 13:31N 27°54' W 082°25'0 0.0
2016-Sep-11 12:32N 27°54' W 082°25'0 0.0
2016-Sep-11 11:31N 27°54' W 082°25'0 0.0
2016-Sep-11 08:33N 27°54' W 082°25'0 0.0
2016-Sep-11 07:32N 27°54' W 082°25'0 0.0
2016-Sep-11 03:32N 27°54' W 082°25'0 0.0
2016-Sep-11 02:32N 27°54' W 082°25'0 0.0
2016-Sep-11 01:32N 27°54' W 082°25'0 0.0
2016-Sep-11 00:33N 27°54' W 082°25'0 0.0
2016-Sep-10 23:32N 27°54' W 082°25'0 0.0
2016-Sep-10 22:31N 27°54' W 082°25'0 0.0
2016-Sep-10 21:32N 27°54' W 082°25'0 0.0
2016-Sep-10 20:33N 27°54' W 082°25'0 0.0
2016-Sep-10 19:32N 27°54' W 082°25'0 0.0
2016-Sep-10 18:32N 27°54' W 082°25'0 0.0
2016-Sep-10 17:32N 27°54' W 082°25'0 0.0
2016-Sep-10 16:32N 27°54' W 082°25'0 0.0
2016-Sep-10 15:33N 27°54' W 082°25'0 0.0
2016-Sep-10 14:32N 27°54' W 082°25'0 0.0
2016-Sep-10 13:28N 27°54' W 082°25'0 0.0
2016-Sep-10 12:32N 27°54' W 082°25'0 0.0
2016-Sep-10 11:32N 27°54' W 082°25'0 0.0
2016-Sep-10 10:32N 27°54' W 082°25'0 0.0
2016-Sep-10 09:32N 27°54' W 082°25'0 0.0
2016-Sep-10 08:32N 27°54' W 082°25'0 0.0
2016-Sep-10 07:32N 27°54' W 082°25'0 0.0
2016-Sep-10 06:31N 27°54' W 082°25'0 0.0
2016-Sep-10 05:32N 27°54' W 082°25'0 0.0
2016-Sep-10 04:31N 27°54' W 082°25'0 0.0
2016-Sep-10 03:33N 27°54' W 082°25'0 0.0
2016-Sep-10 02:32N 27°54' W 082°25'0 0.0
2016-Sep-10 01:32N 27°54' W 082°25'0 0.0
2016-Sep-10 00:32N 27°54' W 082°25'0 0.0
2016-Sep-09 23:32N 27°54' W 082°25'0 0.0
2016-Sep-09 22:32N 27°54' W 082°25'0 0.0
2016-Sep-09 21:33N 27°54' W 082°25'0 0.0
2016-Sep-09 20:33N 27°54' W 082°25'0 0.0
2016-Sep-09 19:32N 27°54' W 082°25'0 0.0
2016-Sep-09 18:32N 27°54' W 082°25'0 0.0
2016-Sep-09 17:33N 27°54' W 082°25'0 0.0
2016-Sep-09 16:32N 27°54' W 082°25'0 0.0
2016-Sep-09 15:32N 27°54' W 082°25'0 0.0
2016-Sep-09 14:32N 27°54' W 082°25'0 0.0
2016-Sep-09 13:33N 27°54' W 082°25'0 0.0
2016-Sep-09 12:33N 27°54' W 082°25'0 0.0
2016-Sep-09 11:32N 27°54' W 082°25'0 0.0
2016-Sep-09 10:31N 27°54' W 082°25'0 0.0
2016-Sep-09 09:31N 27°54' W 082°25'0 0.0
2016-Sep-09 08:32N 27°54' W 082°25'0 0.0
2016-Sep-09 07:31N 27°54' W 082°25'0 0.0
2016-Sep-09 06:33N 27°54' W 082°25'0 0.0
2016-Sep-09 05:32N 27°54' W 082°25'0 0.0
2016-Sep-09 04:32N 27°54' W 082°25'0 0.0
2016-Sep-09 03:32N 27°54' W 082°25'0 0.0
2016-Sep-09 02:33N 27°54' W 082°25'0 0.0
2016-Sep-09 01:33N 27°54' W 082°25'0 0.0
2016-Sep-09 00:32N 27°54' W 082°25'0 0.0
2016-Sep-08 23:32N 27°54' W 082°25'0 0.0
2016-Sep-08 22:32N 27°54' W 082°25'0 0.0
2016-Sep-08 21:32N 27°54' W 082°25'0 0.0
2016-Sep-08 20:31N 27°54' W 082°25'0 0.0
2016-Sep-08 19:32N 27°54' W 082°25'0 0.0
2016-Sep-08 18:32N 27°54' W 082°25'0 0.0
2016-Sep-08 17:32N 27°54' W 082°25'0 0.0
2016-Sep-08 16:32N 27°54' W 082°25'0 0.0
2016-Sep-08 15:32N 27°54' W 082°25'0 0.0
2016-Sep-08 14:32N 27°54' W 082°25'0 0.0
2016-Sep-08 13:32N 27°54' W 082°25'0 0.0
2016-Sep-08 12:31N 27°54' W 082°25'0 0.0
2016-Sep-08 11:28N 27°54' W 082°25'0 0.0
2016-Sep-08 10:28N 27°54' W 082°25'0 0.0
2016-Sep-08 09:33N 27°54' W 082°25'0 0.0
2016-Sep-08 08:31N 27°54' W 082°25'0 0.0
2016-Sep-08 07:33N 27°54' W 082°25'0 0.0
2016-Sep-08 06:32N 27°54' W 082°25'0 0.0
2016-Sep-08 05:32N 27°54' W 082°25'0 0.0
2016-Sep-08 04:32N 27°54' W 082°25'0 0.0
2016-Sep-08 03:33N 27°54' W 082°25'0 0.0
2016-Sep-08 02:31N 27°54' W 082°25'0 0.0
2016-Sep-08 01:33N 27°54' W 082°25'0 0.0
2016-Sep-08 00:32N 27°54' W 082°25'0 0.0
2016-Sep-07 23:31N 27°54' W 082°25'0 0.0
2016-Sep-07 22:32N 27°54' W 082°25'0 0.0
2016-Sep-07 21:33N 27°54' W 082°25'3 2.7
2016-Sep-07 20:33N 27°52' W 082°27'1010.1
2016-Sep-07 19:33N 27°43' W 082°32'  
Track history (hours):
 
Tides and Currents Weather Stations Pressure Air Temp Water Temp Dewpoint Dewpoint Depression Visibility Wind Speed Wind Dir Waves Ship Positions

Stamford Pioneer

Last reported at 2016-Sep-16 17:30 UTC. Time now 2016-Sep-26 00:18 UTC.
Position N 27°41' W 082°35'.
Warning: this ship's position is 9 days out of date.

Length 180 m; draft 8.8 m.

Type: Cargo ship. MMSI: 477462800.

Date/timePositionNaut miles runAvg speedWind from/ knotsBaromVisibWave heightAir tempDewpointWater temp
2016-Sep-16 17:30N 27°41' W 082°35'17 8.7
2016-Sep-16 15:34N 27°56' W 082°26'0 0.0
2016-Sep-16 12:33N 27°56' W 082°26'0 0.0
2016-Sep-16 09:33N 27°56' W 082°26'0 0.0
2016-Sep-16 07:33N 27°56' W 082°26'1 0.2
2016-Sep-16 03:29N 27°55' W 082°25'0 0.0
2016-Sep-16 02:32N 27°55' W 082°25'0 0.0
2016-Sep-16 00:30N 27°55' W 082°25'0 0.0
2016-Sep-15 22:33N 27°55' W 082°25'0 0.0
2016-Sep-15 21:33N 27°55' W 082°25'0 0.0
2016-Sep-15 20:33N 27°55' W 082°25'4 2.0
2016-Sep-15 18:33N 27°51' W 082°24'0 0.0
2016-Sep-15 12:31N 27°51' W 082°24'0 0.0
2016-Sep-15 11:27N 27°51' W 082°24'0 0.0
2016-Sep-15 04:33N 27°51' W 082°24'0 0.0
2016-Sep-15 03:31N 27°51' W 082°24'0 0.0
2016-Sep-15 01:30N 27°51' W 082°24'0 0.0
2016-Sep-14 22:33N 27°51' W 082°24'0 0.0
2016-Sep-14 21:31N 27°51' W 082°24'0 0.0
2016-Sep-14 17:31N 27°51' W 082°24'0 0.0
2016-Sep-14 16:33N 27°51' W 082°24'0 0.0
2016-Sep-14 13:33N 27°51' W 082°24'0 0.0
2016-Sep-14 12:31N 27°51' W 082°24'0 0.0
2016-Sep-14 10:31N 27°51' W 082°24'0 0.0
2016-Sep-14 09:33N 27°51' W 082°24'0 0.0
2016-Sep-14 08:30N 27°51' W 082°24'0 0.0
2016-Sep-14 07:33N 27°51' W 082°24'0 0.0
2016-Sep-14 06:33N 27°51' W 082°24'0 0.0
2016-Sep-14 03:33N 27°51' W 082°24'5 1.0
2016-Sep-13 22:33N 27°48' W 082°28'9 0.2
2016-Sep-11 22:33N 27°41' W 082°35'1212.0
2016-Sep-11 21:33N 27°51' W 082°27'4 3.9
2016-Sep-11 20:32N 27°54' W 082°25'0 0.0
2016-Sep-11 19:31N 27°54' W 082°25'0 0.0
2016-Sep-11 18:33N 27°54' W 082°25'0 0.0
2016-Sep-11 17:32N 27°54' W 082°25'0 0.0
2016-Sep-11 16:32N 27°54' W 082°25'0 0.0
2016-Sep-11 15:31N 27°54' W 082°25'0 0.0
2016-Sep-11 14:32N 27°54' W 082°25'0 0.0
2016-Sep-11 13:31N 27°54' W 082°25'0 0.0
2016-Sep-11 12:32N 27°54' W 082°25'0 0.0
2016-Sep-11 11:31N 27°54' W 082°25'0 0.0
2016-Sep-11 08:33N 27°54' W 082°25'0 0.0
2016-Sep-11 07:32N 27°54' W 082°25'0 0.0
2016-Sep-11 03:32N 27°54' W 082°25'0 0.0
2016-Sep-11 02:32N 27°54' W 082°25'0 0.0
2016-Sep-11 01:32N 27°54' W 082°25'0 0.0
2016-Sep-11 00:33N 27°54' W 082°25'0 0.0
2016-Sep-10 23:32N 27°54' W 082°25'0 0.0
2016-Sep-10 22:31N 27°54' W 082°25'0 0.0
2016-Sep-10 21:32N 27°54' W 082°25'0 0.0
2016-Sep-10 20:33N 27°54' W 082°25'0 0.0
2016-Sep-10 19:32N 27°54' W 082°25'0 0.0
2016-Sep-10 18:32N 27°54' W 082°25'0 0.0
2016-Sep-10 17:32N 27°54' W 082°25'0 0.0
2016-Sep-10 16:32N 27°54' W 082°25'0 0.0
2016-Sep-10 15:33N 27°54' W 082°25'0 0.0
2016-Sep-10 14:32N 27°54' W 082°25'0 0.0
2016-Sep-10 13:28N 27°54' W 082°25'0 0.0
2016-Sep-10 12:32N 27°54' W 082°25'0 0.0
2016-Sep-10 11:32N 27°54' W 082°25'0 0.0
2016-Sep-10 10:32N 27°54' W 082°25'0 0.0
2016-Sep-10 09:32N 27°54' W 082°25'0 0.0
2016-Sep-10 08:32N 27°54' W 082°25'0 0.0
2016-Sep-10 07:32N 27°54' W 082°25'0 0.0
2016-Sep-10 06:31N 27°54' W 082°25'0 0.0
2016-Sep-10 05:32N 27°54' W 082°25'0 0.0
2016-Sep-10 04:31N 27°54' W 082°25'0 0.0
2016-Sep-10 03:33N 27°54' W 082°25'0 0.0
2016-Sep-10 02:32N 27°54' W 082°25'0 0.0
2016-Sep-10 01:32N 27°54' W 082°25'0 0.0
2016-Sep-10 00:32N 27°54' W 082°25'0 0.0
2016-Sep-09 23:32N 27°54' W 082°25'0 0.0
2016-Sep-09 22:32N 27°54' W 082°25'0 0.0
2016-Sep-09 21:33N 27°54' W 082°25'0 0.0
2016-Sep-09 20:33N 27°54' W 082°25'0 0.0
2016-Sep-09 19:32N 27°54' W 082°25'0 0.0
2016-Sep-09 18:32N 27°54' W 082°25'0 0.0
2016-Sep-09 17:33N 27°54' W 082°25'0 0.0
2016-Sep-09 16:32N 27°54' W 082°25'0 0.0
2016-Sep-09 15:32N 27°54' W 082°25'0 0.0
2016-Sep-09 14:32N 27°54' W 082°25'0 0.0
2016-Sep-09 13:33N 27°54' W 082°25'0 0.0
2016-Sep-09 12:33N 27°54' W 082°25'0 0.0
2016-Sep-09 11:32N 27°54' W 082°25'0 0.0
2016-Sep-09 10:31N 27°54' W 082°25'0 0.0
2016-Sep-09 09:31N 27°54' W 082°25'0 0.0
2016-Sep-09 08:32N 27°54' W 082°25'0 0.0
2016-Sep-09 07:31N 27°54' W 082°25'0 0.0
2016-Sep-09 06:33N 27°54' W 082°25'0 0.0
2016-Sep-09 05:32N 27°54' W 082°25'0 0.0
2016-Sep-09 04:32N 27°54' W 082°25'0 0.0
2016-Sep-09 03:32N 27°54' W 082°25'0 0.0
2016-Sep-09 02:33N 27°54' W 082°25'0 0.0
2016-Sep-09 01:33N 27°54' W 082°25'0 0.0
2016-Sep-09 00:32N 27°54' W 082°25'0 0.0
2016-Sep-08 23:32N 27°54' W 082°25'0 0.0
2016-Sep-08 22:32N 27°54' W 082°25'0 0.0
2016-Sep-08 21:32N 27°54' W 082°25'0 0.0
2016-Sep-08 20:31N 27°54' W 082°25'0 0.0
2016-Sep-08 19:32N 27°54' W 082°25'0 0.0
2016-Sep-08 18:32N 27°54' W 082°25'0 0.0
2016-Sep-08 17:32N 27°54' W 082°25'0 0.0
2016-Sep-08 16:32N 27°54' W 082°25'0 0.0
2016-Sep-08 15:32N 27°54' W 082°25'0 0.0
2016-Sep-08 14:32N 27°54' W 082°25'0 0.0
2016-Sep-08 13:32N 27°54' W 082°25'0 0.0
2016-Sep-08 12:31N 27°54' W 082°25'0 0.0
2016-Sep-08 11:28N 27°54' W 082°25'0 0.0
2016-Sep-08 10:28N 27°54' W 082°25'0 0.0
2016-Sep-08 09:33N 27°54' W 082°25'0 0.0
2016-Sep-08 08:31N 27°54' W 082°25'0 0.0
2016-Sep-08 07:33N 27°54' W 082°25'0 0.0
2016-Sep-08 06:32N 27°54' W 082°25'0 0.0
2016-Sep-08 05:32N 27°54' W 082°25'0 0.0
2016-Sep-08 04:32N 27°54' W 082°25'0 0.0
2016-Sep-08 03:33N 27°54' W 082°25'0 0.0
2016-Sep-08 02:31N 27°54' W 082°25'0 0.0
2016-Sep-08 01:33N 27°54' W 082°25'0 0.0
2016-Sep-08 00:32N 27°54' W 082°25'0 0.0
2016-Sep-07 23:31N 27°54' W 082°25'0 0.0
2016-Sep-07 22:32N 27°54' W 082°25'0 0.0
2016-Sep-07 21:33N 27°54' W 082°25'3 2.7
2016-Sep-07 20:33N 27°52' W 082°27'1010.1
2016-Sep-07 19:33N 27°43' W 082°32'  

Dump ship's entire track history